Impacts METAR Board
IDs:

KGYB - Giddings/Lee Cnty, TX, US

Updated at: 2300 UTC 18 Oct 2019
Potential Impact None Slight Moderate High
Time 18/11Z 18/12Z 18/13Z 18/14Z 18/15Z 18/16Z 18/17Z 18/18Z 18/19Z 18/20Z 18/21Z 18/22Z 18/23Z
Temp50 50 50 54 60 67 73 77 81 84 85 85 84
Dewpt50 49 49 52 53 53 50 35 35 36 40 49 52
Altim29.91 29.90 29.91 29.91 29.91 29.91 29.89 29.86 29.81 29.78 29.76 29.75 29.74
VIS10 10 10 10 10 10 10 10 10 10 10 10 10
CIG-- -- -- -- -- -- -- -- -- -- -- -- --
CoverCLRCLRCLRCLRCLRCLRCLRCLRCLRCLRCLRCLRCLR
FltCatVFRVFRVFRVFRVFRVFRVFRVFRVFRVFRVFRVFRVFR
WX--------------------------
WDir0000000000000
WSpd0 0 0 0 0 0 0 0 0 0 0 0 0
WGst-- -- -- -- -- -- -- -- -- -- -- -- --
Raw hourly METARs
KGYB 181055Z AUTO 00000KT 10SM CLR 10/10 A2991 RMK AO2 T01000098
KGYB 181155Z AUTO 00000KT 10SM CLR 10/09 A2990 RMK AO2 T01010093 10140 20097
KGYB 181255Z AUTO 00000KT 10SM CLR 10/10 A2991 RMK AO2 T01020097
KGYB 181355Z AUTO 00000KT 10SM CLR 12/11 A2991 RMK AO2 T01230112
KGYB 181455Z AUTO 00000KT 10SM CLR 16/12 A2991 RMK AO2 T01570119
KGYB 181555Z AUTO 00000KT 10SM CLR 19/12 A2991 RMK AO2 T01930119
KGYB 181655Z AUTO 00000KT 10SM CLR 23/10 A2989 RMK AO2 T02260100
KGYB 181755Z AUTO 00000KT 10SM CLR 25/02 A2986 RMK AO2 T02490016 10249 20100
KGYB 181855Z AUTO 00000KT 10SM CLR 27/01 A2981 RMK AO2 T02720014
KGYB 181955Z AUTO 00000KT 10SM CLR 29/02 A2978 RMK AO2 T02890020
KGYB 182055Z AUTO 00000KT 10SM CLR 30/05 A2976 RMK AO2 T02960045
KGYB 182155Z AUTO 00000KT 10SM CLR 30/09 A2975 RMK AO2 T02960092
KGYB 182255Z AUTO 00000KT 10SM CLR 29/11 A2974 RMK AO2 T02900110